createdAt,value
2023-04-22T00:00:14.861Z,0
2023-04-22T00:01:14.814Z,0
2023-04-22T00:02:15.785Z,0
2023-04-22T00:03:16.631Z,0
2023-04-22T00:04:17.388Z,0
2023-04-22T00:05:17.138Z,0
2023-04-22T00:08:14.875Z,0
2023-04-22T00:09:13.852Z,0
2023-04-22T00:10:15.119Z,0
2023-04-22T00:11:14.876Z,0
2023-04-22T00:12:15.321Z,3
2023-04-22T00:13:15.271Z,3
2023-04-22T00:16:14.920Z,3
2023-04-22T00:17:15.165Z,1
2023-04-22T00:18:15.273Z,1
2023-04-22T00:19:14.983Z,1
2023-04-22T00:20:15.007Z,1
2023-04-22T00:21:15.434Z,1
2023-04-22T00:22:15.447Z,0
2023-04-22T00:23:14.845Z,0
2023-04-22T00:24:15.187Z,0
2023-04-22T00:25:15.689Z,0
2023-04-22T00:26:14.518Z,0
2023-04-22T00:27:14.916Z,0
2023-04-22T00:28:15.022Z,0
2023-04-22T00:29:15.274Z,0
2023-04-22T00:30:14.686Z,0
2023-04-22T00:31:14.988Z,0
2023-04-22T00:32:15.004Z,0
2023-04-22T00:33:15.657Z,0
2023-04-22T00:37:15.079Z,0
2023-04-22T00:38:15.361Z,0
2023-04-22T00:39:15.069Z,0
2023-04-22T00:40:15.270Z,0
2023-04-22T00:41:14.653Z,0
2023-04-22T00:42:14.925Z,1
2023-04-22T00:43:15.193Z,1
2023-04-22T00:44:15.475Z,1
2023-04-22T00:45:14.571Z,1
2023-04-22T00:46:14.809Z,1
2023-04-22T00:47:15.425Z,0
2023-04-22T00:48:15.679Z,0
2023-04-22T00:49:15.330Z,0
2023-04-22T00:50:14.975Z,0
2023-04-22T00:56:14.783Z,0
2023-04-22T00:57:15.044Z,0
2023-04-22T00:58:15.197Z,0
2023-04-22T00:59:15.458Z,0
2023-04-22T01:00:14.768Z,0
2023-04-22T01:01:14.933Z,0
2023-04-22T01:02:15.893Z,0
2023-04-22T01:03:16.492Z,0
2023-04-22T01:04:15.538Z,0
2023-04-22T01:05:14.857Z,0
2023-04-22T01:06:15.258Z,0
2023-04-22T01:07:14.801Z,0
2023-04-22T01:08:14.976Z,0
2023-04-22T01:09:15.418Z,0
2023-04-22T01:10:14.588Z,0
2023-04-22T01:11:15.387Z,0
2023-04-22T01:13:14.781Z,3
2023-04-22T01:14:15.072Z,3
2023-04-22T01:15:17.630Z,3
2023-04-22T01:16:15.894Z,3
2023-04-22T01:17:14.794Z,1
2023-04-22T01:18:15.200Z,1
2023-04-22T01:19:15.560Z,1
2023-04-22T01:20:14.698Z,1
2023-04-22T01:21:15.128Z,1
2023-04-22T01:22:15.004Z,0
2023-04-22T01:23:15.349Z,0
2023-04-22T01:24:14.969Z,0
2023-04-22T01:25:15.010Z,0
2023-04-22T01:26:14.897Z,0
2023-04-22T01:27:15.091Z,0
2023-04-22T01:28:15.353Z,0
2023-04-22T01:29:15.661Z,0
2023-04-22T01:32:15.260Z,0
2023-04-22T01:33:15.548Z,0
2023-04-22T01:34:14.082Z,0
2023-04-22T01:35:15.409Z,0
2023-04-22T01:36:17.642Z,0
2023-04-22T01:40:14.755Z,0
2023-04-22T01:41:14.987Z,0
2023-04-22T01:42:15.488Z,0
2023-04-22T01:43:14.712Z,0
2023-04-22T01:44:15.148Z,0
2023-04-22T01:45:15.598Z,0
2023-04-22T01:46:15.104Z,0
2023-04-22T01:49:15.536Z,0
2023-04-22T01:50:14.764Z,0
2023-04-22T01:51:14.944Z,0
2023-04-22T01:52:15.209Z,0
2023-04-22T01:54:14.697Z,0
2023-04-22T01:55:14.897Z,0
2023-04-22T01:56:15.009Z,0
2023-04-22T01:57:15.242Z,0
2023-04-22T01:58:15.523Z,0
2023-04-22T01:59:14.721Z,0
2023-04-22T02:00:15.096Z,0
2023-04-22T02:01:15.152Z,0
2023-04-22T02:02:15.330Z,0
2023-04-22T02:03:16.269Z,0
2023-04-22T02:04:14.556Z,0
2023-04-22T02:05:15.447Z,0
2023-04-22T02:06:15.009Z,0
2023-04-22T02:07:15.130Z,0
2023-04-22T02:08:14.713Z,0
2023-04-22T02:09:14.785Z,0
2023-04-22T02:10:15.161Z,0
2023-04-22T02:11:15.404Z,0
2023-04-22T02:15:14.755Z,0
2023-04-22T02:16:15.326Z,0
2023-04-22T02:17:15.333Z,0
2023-04-22T02:18:14.794Z,0
2023-04-22T02:19:15.174Z,0
2023-04-22T02:20:15.569Z,0
2023-04-22T02:21:15.531Z,0
2023-04-22T02:22:14.769Z,0
2023-04-22T02:23:15.210Z,0
2023-04-22T02:24:15.106Z,0
2023-04-22T02:25:15.662Z,0
2023-04-22T02:26:15.478Z,0
2023-04-22T02:27:14.804Z,3
2023-04-22T02:28:15.127Z,3
2023-04-22T02:32:14.667Z,0
2023-04-22T02:33:15.180Z,0
2023-04-22T02:34:15.202Z,0
2023-04-22T02:35:15.606Z,0
2023-04-22T02:36:14.684Z,0
2023-04-22T02:37:15.100Z,0
2023-04-22T02:38:15.097Z,0
2023-04-22T02:39:15.375Z,0
2023-04-22T02:40:14.684Z,0
2023-04-22T02:41:15.071Z,0
2023-04-22T02:42:15.237Z,0
2023-04-22T02:43:14.828Z,0
2023-04-22T02:44:14.928Z,0
2023-04-22T02:45:15.339Z,0
2023-04-22T02:51:14.717Z,0
2023-04-22T02:52:15.130Z,1
2023-04-22T02:53:15.547Z,1
2023-04-22T02:54:14.642Z,1
2023-04-22T02:55:15.324Z,1
2023-04-22T02:56:15.154Z,1
2023-04-22T02:57:15.410Z,1
2023-04-22T02:58:14.706Z,1
2023-04-22T02:59:14.927Z,1
2023-04-22T03:00:15.329Z,1
2023-04-22T03:03:16.171Z,0
2023-04-22T03:04:15.447Z,0
2023-04-22T03:05:14.913Z,0
2023-04-22T03:06:15.004Z,0
2023-04-22T03:07:15.170Z,0
2023-04-22T03:08:15.264Z,0
2023-04-22T03:09:14.673Z,0
2023-04-22T03:10:14.833Z,0
2023-04-22T03:11:15.251Z,0
2023-04-22T03:12:15.457Z,1
2023-04-22T03:13:14.639Z,1
2023-04-22T03:14:14.742Z,1
2023-04-22T03:15:15.233Z,1
2023-04-22T03:16:15.272Z,1
2023-04-22T03:17:15.899Z,1
2023-04-22T03:18:15.722Z,1
2023-04-22T03:19:14.497Z,1
2023-04-22T03:20:15.189Z,1
2023-04-22T03:21:14.720Z,1
2023-04-22T03:22:15.100Z,0
2023-04-22T03:23:15.181Z,0
2023-04-22T03:24:15.446Z,0
2023-04-22T03:25:14.713Z,0
2023-04-22T03:26:14.811Z,0
2023-04-22T03:27:15.397Z,0
2023-04-22T03:28:14.645Z,0
2023-04-22T03:29:15.042Z,0
2023-04-22T03:31:14.655Z,0
2023-04-22T03:32:15.243Z,0
2023-04-22T03:33:15.335Z,0
2023-04-22T03:34:15.155Z,0
2023-04-22T03:35:15.583Z,0
2023-04-22T03:36:14.729Z,0
2023-04-22T03:37:15.349Z,0
2023-04-22T03:38:15.411Z,0
2023-04-22T03:39:14.495Z,0
2023-04-22T03:40:15.896Z,0
2023-04-22T03:44:15.320Z,1
2023-04-22T03:45:15.137Z,1
2023-04-22T03:46:15.063Z,1
2023-04-22T03:47:16.917Z,0
2023-04-22T03:48:15.977Z,0
2023-04-22T03:49:14.808Z,0
2023-04-22T03:50:14.984Z,0
2023-04-22T03:51:15.050Z,0
2023-04-22T03:52:15.321Z,1
2023-04-22T03:53:15.470Z,1
2023-04-22T03:58:14.863Z,3
2023-04-22T03:59:15.000Z,3
2023-04-22T04:00:15.336Z,3
2023-04-22T04:01:14.602Z,3
2023-04-22T04:02:15.593Z,1
2023-04-22T04:03:16.774Z,1
2023-04-22T04:04:17.567Z,1
2023-04-22T04:05:15.464Z,1
2023-04-22T04:06:15.613Z,1
2023-04-22T04:07:15.224Z,1
2023-04-22T04:08:15.381Z,1
2023-04-22T04:09:14.943Z,1
2023-04-22T04:10:15.187Z,1
2023-04-22T04:11:15.010Z,1
2023-04-22T04:14:15.017Z,0
2023-04-22T04:15:15.489Z,0
2023-04-22T04:16:14.832Z,0
2023-04-22T04:17:14.861Z,0
2023-04-22T04:18:15.495Z,0
2023-04-22T04:19:15.525Z,0
2023-04-22T04:20:14.581Z,0
2023-04-22T04:21:14.707Z,0
2023-04-22T04:22:15.254Z,0
2023-04-22T04:23:15.403Z,0
2023-04-22T04:24:15.714Z,0
2023-04-22T04:25:14.572Z,0
2023-04-22T04:26:15.268Z,0
2023-04-22T04:27:15.451Z,0
2023-04-22T04:28:14.703Z,0
2023-04-22T04:29:14.907Z,0
2023-04-22T04:30:15.490Z,0
2023-04-22T04:31:14.895Z,0
2023-04-22T04:32:14.936Z,0
2023-04-22T04:33:16.029Z,0
2023-04-22T04:34:15.621Z,0
2023-04-22T04:38:14.726Z,0
2023-04-22T04:39:15.009Z,0
2023-04-22T04:40:15.325Z,0
2023-04-22T04:41:15.349Z,0
2023-04-22T04:42:14.503Z,0
2023-04-22T04:43:14.628Z,0
2023-04-22T04:44:15.055Z,0
2023-04-22T04:45:15.294Z,0
2023-04-22T04:46:14.995Z,0
2023-04-22T04:47:15.311Z,1
2023-04-22T04:48:15.217Z,1
2023-04-22T04:49:15.472Z,1
2023-04-22T04:55:14.916Z,0
2023-04-22T04:56:14.845Z,0
2023-04-22T04:57:15.127Z,3
2023-04-22T04:58:15.377Z,3
2023-04-22T04:59:15.610Z,3
2023-04-22T05:00:14.712Z,3
2023-04-22T05:01:15.226Z,3
2023-04-22T05:02:16.212Z,0
2023-04-22T05:03:15.557Z,0
2023-04-22T05:04:16.916Z,0
2023-04-22T05:05:14.941Z,0
2023-04-22T05:06:14.687Z,0
2023-04-22T05:07:15.235Z,0
2023-04-22T05:08:15.478Z,0
2023-04-22T05:09:14.895Z,0
2023-04-22T05:10:15.239Z,0
2023-04-22T05:11:15.347Z,0
2023-04-22T05:12:15.615Z,0
2023-04-22T05:13:15.331Z,0
2023-04-22T05:17:14.665Z,1
2023-04-22T05:18:15.317Z,1
2023-04-22T05:19:15.446Z,1
2023-04-22T05:20:15.429Z,1
2023-04-22T05:21:14.998Z,1
2023-04-22T05:22:15.172Z,0
2023-04-22T05:23:15.560Z,0
2023-04-22T05:26:15.027Z,0
2023-04-22T05:27:15.448Z,1
2023-04-22T05:28:14.418Z,1
2023-04-22T05:29:14.775Z,1
2023-04-22T05:30:15.122Z,1
2023-04-22T05:31:14.484Z,1
2023-04-22T05:32:15.461Z,1
2023-04-22T05:33:15.690Z,1
2023-04-22T05:34:15.338Z,1
2023-04-22T05:38:14.736Z,1
2023-04-22T05:39:14.871Z,1
2023-04-22T05:40:15.411Z,1
2023-04-22T05:41:14.684Z,1
2023-04-22T05:42:14.962Z,0
2023-04-22T05:43:15.527Z,0
2023-04-22T05:44:14.796Z,0
2023-04-22T05:45:15.081Z,0
2023-04-22T05:46:16.009Z,0
2023-04-22T05:47:14.652Z,1
2023-04-22T05:48:15.472Z,1
2023-04-22T05:51:14.858Z,1
2023-04-22T05:52:14.970Z,3
2023-04-22T05:53:15.055Z,3
2023-04-22T05:54:15.485Z,3
2023-04-22T05:55:15.802Z,3
2023-04-22T05:56:14.552Z,3
2023-04-22T05:57:14.994Z,1
2023-04-22T05:58:15.500Z,1
2023-04-22T05:59:15.325Z,1
2023-04-22T06:00:15.025Z,1
2023-04-22T06:01:14.641Z,1
2023-04-22T06:02:15.741Z,5
2023-04-22T06:03:16.438Z,5
2023-04-22T06:04:17.794Z,5
2023-04-22T06:05:16.525Z,5
2023-04-22T06:09:14.680Z,1
2023-04-22T06:10:16.408Z,1
2023-04-22T06:11:14.902Z,1
2023-04-22T06:12:15.597Z,3
2023-04-22T06:13:14.708Z,3
2023-04-22T06:14:14.817Z,3
2023-04-22T06:15:15.154Z,3
2023-04-22T06:16:15.712Z,3
2023-04-22T06:17:14.856Z,1
2023-04-22T06:18:15.202Z,1
2023-04-22T06:19:15.613Z,1
2023-04-22T06:23:15.262Z,3
2023-04-22T06:24:15.496Z,3
2023-04-22T06:25:14.818Z,3
2023-04-22T06:26:14.856Z,3
2023-04-22T06:27:15.368Z,0
2023-04-22T06:28:15.533Z,0
2023-04-22T06:29:14.456Z,0
2023-04-22T06:30:15.246Z,0
2023-04-22T06:31:15.508Z,0
2023-04-22T06:32:15.371Z,4
2023-04-22T06:36:15.412Z,4
2023-04-22T06:37:15.545Z,1
2023-04-22T06:38:14.583Z,1
2023-04-22T06:39:15.066Z,1
2023-04-22T06:40:15.557Z,1
2023-04-22T06:41:14.796Z,1
2023-04-22T06:42:15.061Z,1
2023-04-22T06:43:15.436Z,1
2023-04-22T06:44:14.629Z,1
2023-04-22T06:45:14.869Z,1
2023-04-22T06:46:14.966Z,1
2023-04-22T06:47:15.516Z,6
2023-04-22T06:48:15.406Z,6
2023-04-22T06:51:15.347Z,6
2023-04-22T06:52:15.487Z,1
2023-04-22T06:53:14.512Z,1
2023-04-22T06:54:14.906Z,1
2023-04-22T06:55:15.259Z,1
2023-04-22T06:56:15.562Z,1
2023-04-22T06:57:14.837Z,0
2023-04-22T06:58:14.987Z,0
2023-04-22T06:59:14.878Z,0
2023-04-22T07:00:15.338Z,0
2023-04-22T07:01:14.626Z,0
2023-04-22T07:02:15.621Z,0
2023-04-22T07:03:15.695Z,0
2023-04-22T07:04:15.749Z,0
2023-04-22T07:05:15.650Z,0
2023-04-22T07:08:15.109Z,1
2023-04-22T07:09:15.502Z,1
2023-04-22T07:10:14.630Z,1
2023-04-22T07:11:16.756Z,1
2023-04-22T07:12:14.810Z,0
2023-04-22T07:13:15.091Z,0
2023-04-22T07:14:15.375Z,0
2023-04-22T07:17:14.848Z,0
2023-04-22T07:18:13.991Z,0
2023-04-22T07:19:15.299Z,0
2023-04-22T07:20:15.770Z,0
2023-04-22T07:21:14.768Z,0
2023-04-22T07:22:14.892Z,1
2023-04-22T07:23:15.358Z,1
2023-04-22T07:24:15.605Z,1
2023-04-22T07:25:15.427Z,1
2023-04-22T07:26:14.642Z,1
2023-04-22T07:27:15.165Z,0
2023-04-22T07:28:15.403Z,0
2023-04-22T07:29:14.504Z,0
2023-04-22T07:30:14.994Z,0
2023-04-22T07:31:15.188Z,0
2023-04-22T07:32:16.110Z,0
2023-04-22T07:33:15.156Z,0
2023-04-22T07:34:15.234Z,0
2023-04-22T07:35:14.723Z,0
2023-04-22T07:36:15.001Z,0
2023-04-22T07:37:15.376Z,1
2023-04-22T07:38:19.274Z,1
2023-04-22T07:43:14.596Z,1
2023-04-22T07:44:14.756Z,1
2023-04-22T07:45:14.920Z,1
2023-04-22T07:46:15.707Z,1
2023-04-22T07:47:14.918Z,1
2023-04-22T07:48:15.064Z,1
2023-04-22T07:49:15.167Z,1
2023-04-22T07:50:15.614Z,1
2023-04-22T07:51:15.376Z,1
2023-04-22T07:52:14.678Z,1
2023-04-22T07:53:14.924Z,1
2023-04-22T07:54:15.103Z,1
2023-04-22T07:55:15.382Z,1
2023-04-22T07:56:14.511Z,1
2023-04-22T07:57:14.745Z,6
2023-04-22T07:58:15.137Z,6
2023-04-22T07:59:15.577Z,6
2023-04-22T08:04:16.960Z,3
2023-04-22T08:05:15.331Z,3
2023-04-22T08:06:15.014Z,3
2023-04-22T08:10:15.471Z,6
2023-04-22T08:11:14.539Z,6
2023-04-22T08:12:14.785Z,8
2023-04-22T08:13:16.445Z,8
2023-04-22T08:14:15.214Z,8
2023-04-22T08:15:15.573Z,8
2023-04-22T08:16:15.681Z,8
2023-04-22T08:17:14.584Z,1
2023-04-22T08:18:15.460Z,1
2023-04-22T08:19:15.321Z,1
2023-04-22T08:21:15.527Z,1
2023-04-22T08:22:14.679Z,3
2023-04-22T08:23:14.974Z,3
2023-04-22T08:24:15.073Z,3
2023-04-22T08:25:15.291Z,3
2023-04-22T08:26:15.655Z,3
2023-04-22T08:27:14.593Z,1
2023-04-22T08:28:14.997Z,1
2023-04-22T08:29:15.191Z,1
2023-04-22T08:30:15.345Z,1
2023-04-22T08:31:15.559Z,1
2023-04-22T08:32:14.575Z,3
2023-04-22T08:33:14.741Z,3
2023-04-22T08:34:14.975Z,3
2023-04-22T08:36:14.745Z,3
2023-04-22T08:37:15.042Z,3
2023-04-22T08:38:15.284Z,3
2023-04-22T08:39:14.387Z,3
2023-04-22T08:40:14.883Z,3
2023-04-22T08:41:15.117Z,3
2023-04-22T08:42:14.418Z,6
2023-04-22T08:43:15.142Z,6
2023-04-22T08:44:14.981Z,6
2023-04-22T08:45:15.544Z,6
2023-04-22T08:48:15.504Z,1
2023-04-22T08:49:15.432Z,1
2023-04-22T08:50:14.801Z,1
2023-04-22T08:51:15.074Z,1
2023-04-22T08:52:15.092Z,1
2023-04-22T08:53:14.454Z,1
2023-04-22T08:54:14.602Z,1
2023-04-22T08:55:14.851Z,1
2023-04-22T08:56:15.790Z,1
2023-04-22T08:57:14.811Z,6
2023-04-22T08:58:14.995Z,6
2023-04-22T08:59:15.287Z,6
2023-04-22T09:03:15.032Z,3
2023-04-22T09:04:16.301Z,3
2023-04-22T09:05:15.110Z,3
2023-04-22T09:06:15.526Z,3
2023-04-22T09:07:14.696Z,0
2023-04-22T09:08:15.045Z,0
2023-04-22T09:09:15.219Z,0
2023-04-22T09:10:15.548Z,0
2023-04-22T09:11:14.786Z,0
2023-04-22T09:12:14.928Z,1
2023-04-22T09:13:15.522Z,1
2023-04-22T09:17:15.457Z,3
2023-04-22T09:18:14.833Z,3
2023-04-22T09:19:15.088Z,3
2023-04-22T09:20:15.413Z,3
2023-04-22T09:21:15.616Z,3
2023-04-22T09:22:14.855Z,1
2023-04-22T09:23:14.934Z,1
2023-04-22T09:24:15.448Z,1
2023-04-22T09:25:15.621Z,1
2023-04-22T09:26:14.661Z,1
2023-04-22T09:27:14.973Z,7
2023-04-22T09:28:15.368Z,7
2023-04-22T09:29:15.463Z,7
2023-04-22T09:30:14.820Z,7
2023-04-22T09:31:14.983Z,7
2023-04-22T09:32:15.797Z,5
2023-04-22T09:33:15.773Z,5
2023-04-22T09:34:14.615Z,5
2023-04-22T09:35:14.902Z,5
2023-04-22T09:36:14.988Z,5
2023-04-22T09:37:15.200Z,4
2023-04-22T09:38:15.462Z,4
2023-04-22T09:39:14.715Z,4
2023-04-22T09:40:15.051Z,4
2023-04-22T09:41:15.384Z,4
2023-04-22T09:42:14.570Z,3
2023-04-22T09:43:14.892Z,3
2023-04-22T09:44:15.036Z,3
2023-04-22T09:45:15.453Z,3
2023-04-22T09:47:15.340Z,5
2023-04-22T09:48:15.701Z,5
2023-04-22T09:49:14.867Z,5
2023-04-22T09:50:15.351Z,5
2023-04-22T09:51:15.499Z,5
2023-04-22T09:52:14.454Z,1
2023-04-22T09:53:15.009Z,1
2023-04-22T09:54:15.297Z,1
2023-04-22T09:55:15.508Z,1
2023-04-22T09:56:14.357Z,1
2023-04-22T09:58:15.527Z,3
2023-04-22T09:59:14.906Z,3
2023-04-22T10:00:15.158Z,3
2023-04-22T10:01:15.727Z,3
2023-04-22T10:02:15.092Z,6
2023-04-22T10:04:15.446Z,6
2023-04-22T10:06:14.611Z,6
2023-04-22T10:07:15.029Z,1
2023-04-22T10:08:16.068Z,1
2023-04-22T10:09:17.672Z,1
2023-04-22T10:10:14.957Z,1
2023-04-22T10:11:15.260Z,1
2023-04-22T10:12:16.718Z,1
2023-04-22T10:13:14.791Z,1
2023-04-22T10:14:14.883Z,1
2023-04-22T10:15:15.407Z,1
2023-04-22T10:18:14.585Z,4
2023-04-22T10:19:16.982Z,4
2023-04-22T10:20:15.042Z,4
2023-04-22T10:21:15.328Z,4
2023-04-22T10:22:15.642Z,3
2023-04-22T10:23:14.568Z,3
2023-04-22T10:24:14.756Z,3
2023-04-22T10:25:15.089Z,3
2023-04-22T10:26:14.898Z,3
2023-04-22T10:27:15.270Z,6
2023-04-22T10:28:15.350Z,6
2023-04-22T10:32:15.601Z,6
2023-04-22T10:33:15.055Z,6
2023-04-22T10:34:15.075Z,6
2023-04-22T10:35:15.560Z,6
2023-04-22T10:36:14.888Z,6
2023-04-22T10:40:14.755Z,6
2023-04-22T10:41:14.919Z,6
2023-04-22T10:42:15.303Z,7
2023-04-22T10:43:15.511Z,7
2023-04-22T10:44:15.358Z,7
2023-04-22T10:45:14.668Z,7
2023-04-22T10:46:15.168Z,7
2023-04-22T10:47:15.050Z,7
2023-04-22T10:48:15.193Z,7
2023-04-22T10:50:14.710Z,7
2023-04-22T10:51:14.865Z,7
2023-04-22T10:52:15.117Z,4
2023-04-22T10:53:15.373Z,4
2023-04-22T10:54:14.724Z,4
2023-04-22T10:55:14.761Z,4
2023-04-22T10:56:14.952Z,4
2023-04-22T10:57:15.500Z,4
2023-04-22T10:58:15.565Z,4
2023-04-22T10:59:14.910Z,4
2023-04-22T11:00:15.133Z,4
2023-04-22T11:04:16.138Z,5
2023-04-22T11:05:14.663Z,5
2023-04-22T11:06:15.415Z,5
2023-04-22T11:07:14.670Z,3
2023-04-22T11:08:14.870Z,3
2023-04-22T11:09:15.056Z,3
2023-04-22T11:10:14.795Z,3
2023-04-22T11:11:14.952Z,3
2023-04-22T11:12:15.463Z,5
2023-04-22T11:13:14.591Z,5
2023-04-22T11:14:14.930Z,5
2023-04-22T11:15:15.138Z,5
2023-04-22T11:16:16.074Z,5
2023-04-22T11:20:14.790Z,1
2023-04-22T11:21:14.643Z,1
2023-04-22T11:22:14.963Z,0
2023-04-22T11:23:15.118Z,0
2023-04-22T11:24:15.432Z,0
2023-04-22T11:25:14.660Z,0
2023-04-22T11:26:15.266Z,0
2023-04-22T11:27:14.852Z,5
2023-04-22T11:28:15.084Z,5
2023-04-22T11:29:14.996Z,5
2023-04-22T11:30:15.559Z,5
2023-04-22T11:31:15.435Z,5
2023-04-22T11:32:15.701Z,9
2023-04-22T11:36:15.678Z,9
2023-04-22T11:37:14.833Z,5
2023-04-22T11:38:14.923Z,5
2023-04-22T11:39:15.062Z,5
2023-04-22T11:46:15.113Z,9
2023-04-22T11:48:15.305Z,6
2023-04-22T11:49:15.357Z,6
2023-04-22T11:50:14.594Z,6
2023-04-22T11:51:14.924Z,6
2023-04-22T11:52:15.115Z,5
2023-04-22T11:53:15.423Z,5
2023-04-22T11:54:14.662Z,5
2023-04-22T11:55:14.805Z,5
2023-04-22T11:56:15.044Z,5
2023-04-22T11:57:15.288Z,8
2023-04-22T11:58:15.446Z,8
2023-04-22T12:00:15.159Z,8
2023-04-22T12:01:14.888Z,8
2023-04-22T12:02:15.441Z,3
2023-04-22T12:03:17.874Z,3
2023-04-22T12:04:16.153Z,3
2023-04-22T12:08:14.645Z,9
2023-04-22T12:09:17.661Z,9
2023-04-22T12:13:14.800Z,5
2023-04-22T12:14:14.980Z,5
2023-04-22T12:15:20.848Z,5
2023-04-22T12:19:14.943Z,4
2023-04-22T12:20:15.328Z,4
2023-04-22T12:21:15.514Z,4
2023-04-22T12:22:14.621Z,9
2023-04-22T12:23:14.898Z,9
2023-04-22T12:24:15.112Z,9
2023-04-22T12:25:15.252Z,9
2023-04-22T12:26:14.712Z,9
2023-04-22T12:27:15.060Z,5
2023-04-22T12:29:15.191Z,5
2023-04-22T12:30:14.799Z,5
2023-04-22T12:31:15.196Z,5
2023-04-22T12:32:15.455Z,1
2023-04-22T12:33:14.620Z,1
2023-04-22T12:34:15.196Z,1
2023-04-22T12:37:14.738Z,4
2023-04-22T12:38:15.132Z,4
2023-04-22T12:39:15.325Z,4
2023-04-22T12:40:14.542Z,4
2023-04-22T12:41:14.738Z,4
2023-04-22T12:42:14.954Z,8
2023-04-22T12:43:15.471Z,8
2023-04-22T12:44:14.560Z,8
2023-04-22T12:45:14.817Z,8
2023-04-22T12:46:15.460Z,8
2023-04-22T12:47:15.021Z,7
2023-04-22T12:48:15.327Z,7
2023-04-22T12:49:14.632Z,7
2023-04-22T12:50:15.106Z,7
2023-04-22T12:51:14.710Z,7
2023-04-22T12:52:14.822Z,8
2023-04-22T12:53:15.640Z,8
2023-04-22T12:54:14.680Z,8
2023-04-22T12:55:15.132Z,8
2023-04-22T12:56:14.939Z,8
2023-04-22T12:57:15.145Z,7
2023-04-22T12:58:15.204Z,7
2023-04-22T12:59:15.641Z,7
2023-04-22T13:00:14.851Z,7
2023-04-22T13:01:15.158Z,7
2023-04-22T13:02:16.027Z,3
2023-04-22T13:05:15.197Z,3
2023-04-22T13:06:14.530Z,3
2023-04-22T13:07:14.603Z,3
2023-04-22T13:09:15.291Z,3
2023-04-22T13:10:15.570Z,3
2023-04-22T13:11:14.719Z,3
2023-04-22T13:12:14.768Z,6
2023-04-22T13:16:14.893Z,6
2023-04-22T13:17:15.132Z,6
2023-04-22T13:18:15.799Z,6
2023-04-22T13:19:14.517Z,6
2023-04-22T13:20:14.849Z,6
2023-04-22T13:21:15.050Z,6
2023-04-22T13:22:15.457Z,3
2023-04-22T13:23:14.525Z,3
2023-04-22T13:24:14.808Z,3
2023-04-22T13:25:15.136Z,3
2023-04-22T13:26:15.252Z,3
2023-04-22T13:27:15.346Z,6
2023-04-22T13:28:14.917Z,6
2023-04-22T13:29:15.870Z,6
2023-04-22T13:30:15.372Z,6
2023-04-22T13:31:14.747Z,6
2023-04-22T13:32:14.922Z,7
2023-04-22T13:33:15.119Z,7
2023-04-22T13:34:15.185Z,7
2023-04-22T13:35:14.750Z,7
2023-04-22T13:36:14.905Z,7
2023-04-22T13:37:14.856Z,5
2023-04-22T13:38:15.411Z,5
2023-04-22T13:39:14.520Z,5
2023-04-22T13:40:15.204Z,5
2023-04-22T13:41:16.471Z,5
2023-04-22T13:42:15.419Z,4
2023-04-22T13:43:14.576Z,4
2023-04-22T13:44:14.809Z,4
2023-04-22T13:45:15.238Z,4
2023-04-22T13:46:14.966Z,4
2023-04-22T13:47:15.880Z,6
2023-04-22T13:48:15.281Z,6
2023-04-22T13:49:15.594Z,6
2023-04-22T13:51:14.558Z,6
2023-04-22T13:52:14.781Z,8
2023-04-22T13:53:14.960Z,8
2023-04-22T13:54:14.929Z,8
2023-04-22T13:55:14.677Z,8
2023-04-22T13:56:15.188Z,8
2023-04-22T13:57:15.563Z,3
2023-04-22T13:58:14.666Z,3
2023-04-22T13:59:15.105Z,3
2023-04-22T14:00:15.699Z,3
2023-04-22T14:01:15.420Z,3
2023-04-22T14:04:16.339Z,3
2023-04-22T14:05:14.834Z,3
2023-04-22T14:06:15.421Z,3
2023-04-22T14:08:14.761Z,6
2023-04-22T14:09:14.981Z,6
2023-04-22T14:10:15.379Z,6
2023-04-22T14:11:14.808Z,6
2023-04-22T14:12:15.231Z,1
2023-04-22T14:13:15.378Z,1
2023-04-22T14:14:14.776Z,1
2023-04-22T14:15:14.955Z,1
2023-04-22T14:17:16.009Z,12
2023-04-22T14:18:14.680Z,12
2023-04-22T14:19:14.808Z,12
2023-04-22T14:20:15.180Z,12
2023-04-22T14:21:15.458Z,12
2023-04-22T14:22:14.783Z,6
2023-04-22T14:23:15.113Z,6
2023-04-22T14:24:15.307Z,6
2023-04-22T14:26:14.161Z,6
2023-04-22T14:27:17.006Z,3
2023-04-22T14:28:15.482Z,3
2023-04-22T14:29:14.720Z,3
2023-04-22T14:30:15.023Z,3
2023-04-22T14:31:15.894Z,3
2023-04-22T14:34:14.983Z,3
2023-04-22T14:35:15.344Z,3
2023-04-22T14:36:14.850Z,3
2023-04-22T14:37:14.980Z,5
2023-04-22T14:38:15.287Z,5
2023-04-22T14:39:15.559Z,5
2023-04-22T14:40:14.851Z,5
2023-04-22T14:41:15.152Z,5
2023-04-22T14:42:15.249Z,6
2023-04-22T14:43:14.700Z,6
2023-04-22T14:44:15.032Z,6
2023-04-22T14:45:15.336Z,6
2023-04-22T14:47:14.738Z,8
2023-04-22T14:48:15.437Z,8
2023-04-22T14:49:15.415Z,8
2023-04-22T14:50:14.909Z,8
2023-04-22T14:51:14.981Z,8
2023-04-22T14:52:15.528Z,4
2023-04-22T15:01:16.727Z,4
2023-04-22T15:02:15.261Z,3
2023-04-22T15:03:16.378Z,3
2023-04-22T15:04:15.244Z,3
2023-04-22T15:05:14.966Z,3
2023-04-22T15:06:14.983Z,3
2023-04-22T15:08:14.591Z,6
2023-04-22T15:09:14.877Z,6
2023-04-22T15:10:15.396Z,6
2023-04-22T15:11:14.767Z,6
2023-04-22T15:12:15.269Z,7
2023-04-22T15:13:15.532Z,7
2023-04-22T15:14:16.663Z,7
2023-04-22T15:17:14.408Z,5
2023-04-22T15:18:15.073Z,5
2023-04-22T15:19:15.231Z,5
2023-04-22T15:20:17.337Z,5
2023-04-22T15:21:15.058Z,5
2023-04-22T15:22:15.306Z,3
2023-04-22T15:23:15.720Z,3
2023-04-22T15:24:14.836Z,3
2023-04-22T15:25:17.511Z,3
2023-04-22T15:26:15.503Z,3
2023-04-22T15:27:15.398Z,4
2023-04-22T15:30:14.904Z,4
2023-04-22T15:31:15.199Z,4
2023-04-22T15:32:15.397Z,4
2023-04-22T15:33:14.985Z,4
2023-04-22T15:37:16.705Z,4
2023-04-22T15:38:14.662Z,4
2023-04-22T15:39:15.039Z,4
2023-04-22T15:40:15.483Z,4
2023-04-22T15:41:14.636Z,4
2023-04-22T15:42:14.927Z,0
2023-04-22T15:43:15.374Z,0
2023-04-22T15:44:19.425Z,0
2023-04-22T15:45:15.191Z,0
2023-04-22T15:46:14.628Z,0
2023-04-22T15:47:15.734Z,5
2023-04-22T15:50:16.104Z,5
2023-04-22T15:51:15.457Z,5
2023-04-22T15:52:14.625Z,5
2023-04-22T15:53:14.944Z,5
2023-04-22T15:54:15.220Z,5
2023-04-22T15:55:15.931Z,5
2023-04-22T15:57:14.574Z,6
2023-04-22T15:58:14.742Z,6
2023-04-22T15:59:15.099Z,6
2023-04-22T16:01:29.304Z,6
2023-04-22T16:04:15.954Z,3
2023-04-22T16:05:15.117Z,3
2023-04-22T16:06:15.192Z,3
2023-04-22T16:07:15.032Z,1
2023-04-22T16:09:14.736Z,1
2023-04-22T16:10:15.472Z,1
2023-04-22T16:11:14.813Z,1
2023-04-22T16:12:15.132Z,3
2023-04-22T16:13:15.374Z,3
2023-04-22T16:14:14.685Z,3
2023-04-22T16:15:15.025Z,3
2023-04-22T16:16:15.300Z,3
2023-04-22T16:18:13.798Z,6
2023-04-22T16:19:15.949Z,6
2023-04-22T16:20:15.116Z,6
2023-04-22T16:21:15.664Z,6
2023-04-22T16:25:14.811Z,3
2023-04-22T16:26:15.360Z,3
2023-04-22T16:27:15.425Z,3
2023-04-22T16:28:14.528Z,3
2023-04-22T16:29:14.836Z,3
2023-04-22T16:30:18.202Z,3
2023-04-22T16:32:14.747Z,1
2023-04-22T16:33:15.767Z,1
2023-04-22T16:34:15.245Z,1
2023-04-22T16:35:15.727Z,1
2023-04-22T16:36:15.035Z,1
2023-04-22T16:37:15.410Z,4
2023-04-22T16:38:15.517Z,4
2023-04-22T16:42:14.660Z,4
2023-04-22T16:43:14.713Z,4
2023-04-22T16:44:15.076Z,4
2023-04-22T16:45:15.403Z,4
2023-04-22T16:46:15.548Z,4
2023-04-22T16:47:14.092Z,3
2023-04-22T16:48:15.689Z,3
2023-04-22T16:49:17.067Z,3
2023-04-22T16:50:15.037Z,3
2023-04-22T16:51:15.288Z,3
2023-04-22T16:52:15.455Z,3
2023-04-22T16:53:14.569Z,3
2023-04-22T16:54:14.954Z,3
2023-04-22T16:55:15.078Z,3
2023-04-22T16:56:15.460Z,3
2023-04-22T16:57:14.951Z,3
2023-04-22T16:58:16.433Z,3
2023-04-22T17:01:15.072Z,3
2023-04-22T17:02:15.106Z,1
2023-04-22T17:03:16.661Z,1
2023-04-22T17:04:16.130Z,1
2023-04-22T17:05:14.674Z,1
2023-04-22T17:06:14.582Z,1
2023-04-22T17:07:15.152Z,1
2023-04-22T17:08:15.379Z,1
2023-04-22T17:09:14.710Z,1
2023-04-22T17:10:15.429Z,1
2023-04-22T17:11:14.615Z,1
2023-04-22T17:12:14.806Z,5
2023-04-22T17:13:15.023Z,5
2023-04-22T17:14:15.486Z,5
2023-04-22T17:15:15.594Z,5
2023-04-22T17:17:14.890Z,3
2023-04-22T17:18:17.191Z,3
2023-04-22T17:19:14.673Z,3
2023-04-22T17:20:14.924Z,3
2023-04-22T17:21:15.206Z,3
2023-04-22T17:22:15.746Z,1
2023-04-22T17:27:14.632Z,1
2023-04-22T17:28:15.109Z,1
2023-04-22T17:29:15.373Z,1
2023-04-22T17:30:14.648Z,1
2023-04-22T17:31:15.103Z,1
2023-04-22T17:32:15.110Z,4
2023-04-22T17:33:15.623Z,4
2023-04-22T17:34:14.576Z,4
2023-04-22T17:35:15.003Z,4
2023-04-22T17:39:14.607Z,3
2023-04-22T17:40:14.897Z,3
2023-04-22T17:41:14.839Z,3
2023-04-22T17:42:15.291Z,0
2023-04-22T17:43:14.100Z,0
2023-04-22T17:44:15.273Z,0
2023-04-22T17:45:15.485Z,0
2023-04-22T17:46:15.290Z,0
2023-04-22T17:48:15.004Z,1
2023-04-22T17:49:14.845Z,1
2023-04-22T17:50:15.454Z,1
2023-04-22T17:51:15.747Z,1
2023-04-22T17:52:14.624Z,0
2023-04-22T17:53:14.896Z,0
2023-04-22T17:54:15.016Z,0
2023-04-22T17:55:15.293Z,0
2023-04-22T17:56:14.879Z,0
2023-04-22T17:57:15.329Z,0
2023-04-22T17:58:15.505Z,0
2023-04-22T17:59:15.659Z,0
2023-04-22T18:00:14.861Z,0
2023-04-22T18:01:15.342Z,0
2023-04-22T18:02:15.716Z,0
2023-04-22T18:03:15.946Z,0
2023-04-22T18:04:16.140Z,0